Aérodrome :
LOGIN :

S'inscrire | Disclaimer

   EN    FR    IT 

 










Légende :    VFR   VFR Marginal   IFR   IFR Intensif   IFR Très Intensif
Visi : 
Plafond : 
>= 8 km
>= 3000ft
5 à 8 km
1000 à 3000 ft
1500m à 5 km
500 à 1000 ft
800 à 1500m
200 à 500 ft
< 800m
< 200 ft
Symboles :   Orages  Brouillard  Fortes neiges  Fortes précipitations  Vent > 20 kt
SIGMETs :   Divers  Orages  Givrage  Turbulence  Onde Orograph.  Cendres Volcan.







- Altitude de l'aérodrome : 600 ft
- Code IATA : VIE


LOWW - Vienna Schwechat

DERNIER METAR :
  • 301220Z 14009KT 100V170 9999 FEW050 SCT065 14/03 Q1018 NOSIG

METARs EXPIRÉS :
  • 301150Z 14009KT 9999 FEW050 SCT065 14/03 Q1018 NOSIG
  • 301120Z 15009KT 110V170 9999 FEW050 SCT060 14/03 Q1018 NOSIG
  • 301050Z 13008KT 100V160 9999 FEW043 SCT050 14/03 Q1018 NOSIG
  • 301020Z VRB06KT 9999 FEW040 14/04 Q1019 BECMG 14010KT
  • 300950Z VRB05KT 9999 FEW037 14/04 Q1019 NOSIG

TAF TAF LOWW
Valide du 30 à 12h jusqu'au 01 à 18h UTC


301115Z 3012/0118 13009KT 9999 SCT050 TX17/0116Z TN06/0104Z
BECMG 3012/3014 CAVOK
TEMPO 0106/0116 15018G28KT
BECMG 0108/0110 9999 FEW040 SCT320
Pas de NOTAMs connus pour ce terrain.



MET'MAP, la Météo Aéronautique d'un coup d'oeil ! - Copyright ORBIFLY Décembre 2007 - Disclaimer

ORBIFLY MET'MAP TEAM :

Programmation & Développement : Alexandra Zaïnal
Conception & Développement : Baudouin d'Aumeries
Co-Programmation & Développement : Marc-Olivier Méhu
Soutien technique & logistique : Manuel Goepfert

Contact : metmap@orbifly.com




SOURCES & CREDITS :

   NOAA